Fitchburg, Massachusetts
Current Conditions -  °F | °C
As of 11:20 AM on Wednesday 26 Nov 2014 (Local Time) from KFIT Reporting Station
Light Snow Light Snow  
Wind Chill: 29°   Ceiling: 1400
Heat Index: 34°   Visibility: 0.75mi
Dew Point: 31°   Wind: 6mph
Humidity: 89%   Direction: 310°NW
Pressure: 30.14"   Gusts: NA
Location:  42.58°N, 71.79°W
Report Text: KFIT 261620Z AUTO 31005KT 3/4SM -SN BR FEW005 OVC014 01/M01 A3014 RMK AO2 P0003 T00111006
Loading
Personal Weather Stations






























Interactive Weather Map New forecast layout! Learn more

10-Day Weather Forecast

Advertisements
Track Severe Weather on mobile